Time;durP1;ratioP1;P1;durP2;ratioP2;P2;SDS_P1;SDS_P2;PMS_P1;PMS_P2;Temp;Humidity;BMP_temperature;BMP_pressure;BME280_temperature;BME280_humidity;BME280_pressure;Samples;Min_cycle;Max_cycle;Signal;HPM_P1;HPM_P2
2023/02/18 00:01:03;;;;;;;18.20;14.32;;;;;;;10.49;100.00;101636.63;4996324;28;20085;-77
2023/02/18 00:03:31;;;;;;;20.35;15.52;;;;;;;10.48;100.00;101634.97;4995542;28;20081;-77
2023/02/18 00:05:58;;;;;;;18.10;13.35;;;;;;;10.52;100.00;101634.59;5000470;28;20054;-76
2023/02/18 00:08:24;;;;;;;16.98;13.98;;;;;;;10.50;100.00;101633.06;4999532;28;20133;-77
2023/02/18 00:10:52;;;;;;;17.27;13.40;;;;;;;10.48;100.00;101630.56;5005842;28;20085;-78
2023/02/18 00:13:20;;;;;;;20.42;14.50;;;;;;;10.49;100.00;101618.31;5011346;28;20042;-78
2023/02/18 00:15:46;;;;;;;18.75;13.93;;;;;;;10.46;100.00;101627.25;4997415;28;20494;-75
2023/02/18 00:18:13;;;;;;;19.90;13.50;;;;;;;10.45;100.00;101622.16;4994227;28;20046;-77
2023/02/18 00:20:39;;;;;;;18.23;12.65;;;;;;;10.49;100.00;101619.16;5007725;28;20136;-78
2023/02/18 00:23:06;;;;;;;16.85;13.05;;;;;;;10.46;100.00;101615.97;5010234;28;20114;-78
2023/02/18 00:25:33;;;;;;;16.85;12.95;;;;;;;10.50;100.00;101623.44;5010837;28;20078;-79
2023/02/18 00:27:59;;;;;;;17.02;12.75;;;;;;;10.50;100.00;101622.59;5006593;28;20101;-79
2023/02/18 00:30:28;;;;;;;18.15;13.45;;;;;;;10.51;100.00;101629.50;5003212;28;20129;-77
2023/02/18 00:32:54;;;;;;;17.17;13.18;;;;;;;10.48;100.00;101614.03;5002502;28;20047;-79
2023/02/18 00:35:21;;;;;;;15.73;13.00;;;;;;;10.48;100.00;101600.97;5008655;28;20049;-79
2023/02/18 00:37:47;;;;;;;16.63;12.60;;;;;;;10.49;100.00;101600.00;5008136;28;20101;-78
2023/02/18 00:40:14;;;;;;;16.55;13.55;;;;;;;10.48;100.00;101593.94;5008297;28;20078;-79
2023/02/18 00:42:40;;;;;;;18.25;12.90;;;;;;;10.42;100.00;101584.00;5008937;28;20129;-79
2023/02/18 00:45:08;;;;;;;17.65;13.05;;;;;;;10.50;100.00;101588.56;5010139;28;20069;-79
2023/02/18 00:47:36;;;;;;;16.88;12.05;;;;;;;10.49;100.00;101590.38;5001563;28;20088;-80
2023/02/18 00:50:03;;;;;;;17.27;12.25;;;;;;;10.49;100.00;101594.78;5010305;28;20110;-79
2023/02/18 00:52:29;;;;;;;15.48;12.23;;;;;;;10.49;100.00;101586.91;5009447;28;20109;-78
2023/02/18 00:54:56;;;;;;;15.55;11.98;;;;;;;10.51;100.00;101579.75;5001747;28;20235;-78
2023/02/18 00:57:22;;;;;;;16.08;11.60;;;;;;;10.49;100.00;101579.06;5006804;28;20129;-78
2023/02/18 00:59:49;;;;;;;14.77;11.77;;;;;;;10.49;100.00;101586.91;5005954;28;20142;-78
2023/02/18 01:02:15;;;;;;;14.90;11.73;;;;;;;10.46;100.00;101574.09;5012543;28;20435;-78
2023/02/18 01:04:46;;;;;;;15.32;11.38;;;;;;;10.54;100.00;101582.13;5011262;28;20142;-78
2023/02/18 01:07:13;;;;;;;15.15;10.50;;;;;;;10.53;100.00;101570.00;5009936;28;20133;-79
2023/02/18 01:09:39;;;;;;;14.55;10.63;;;;;;;10.53;100.00;101570.00;5011674;28;20137;-79
2023/02/18 01:12:06;;;;;;;14.10;10.35;;;;;;;10.53;100.00;101564.75;5011988;28;20074;-78
2023/02/18 01:14:33;;;;;;;12.48;9.52;;;;;;;10.50;100.00;101565.03;5008830;28;20132;-77
2023/02/18 01:17:00;;;;;;;12.80;10.05;;;;;;;10.46;100.00;101561.00;5002313;28;20125;-78
2023/02/18 01:19:27;;;;;;;12.05;9.52;;;;;;;10.49;100.00;101571.22;5001266;28;20046;-79
2023/02/18 01:21:55;;;;;;;12.68;9.07;;;;;;;10.47;100.00;101575.75;5006255;28;20053;-79
2023/02/18 01:24:22;;;;;;;11.95;9.35;;;;;;;10.50;100.00;101572.88;4999704;28;20077;-80
2023/02/18 01:26:51;;;;;;;10.73;8.55;;;;;;;10.50;100.00;101578.09;5008624;28;20125;-78
2023/02/18 01:29:18;;;;;;;10.45;8.48;;;;;;;10.51;100.00;101574.53;5007241;28;20166;-79
2023/02/18 01:31:45;;;;;;;11.85;9.30;;;;;;;10.51;100.00;101557.03;5010499;28;20082;-79
2023/02/18 01:34:11;;;;;;;10.45;8.30;;;;;;;10.50;100.00;101554.56;5000132;28;20132;-79
2023/02/18 01:36:38;;;;;;;9.38;7.80;;;;;;;10.45;100.00;101557.56;5002595;28;20050;-79
2023/02/18 01:39:06;;;;;;;10.38;8.55;;;;;;;10.43;100.00;101548.19;5001422;28;20078;-78
2023/02/18 01:41:33;;;;;;;10.52;8.43;;;;;;;10.43;100.00;101558.66;5011405;28;20110;-79
2023/02/18 01:44:15;;;;;;;11.18;8.07;;;;;;;10.39;100.00;101552.06;5001564;28;20110;-79
2023/02/18 01:46:41;;;;;;;10.45;7.88;;;;;;;10.33;100.00;101553.41;4997868;28;20461;-79
2023/02/18 01:49:10;;;;;;;10.32;8.13;;;;;;;10.34;100.00;101551.63;5006854;28;20141;-79
2023/02/18 01:51:40;;;;;;;14.57;8.60;;;;;;;10.25;100.00;101546.22;5006699;28;20548;-81
2023/02/18 01:54:11;;;;;;;12.73;8.70;;;;;;;10.27;100.00;101536.47;5002973;28;20050;-79
2023/02/18 01:56:44;;;;;;;10.63;8.38;;;;;;;10.21;100.00;101526.53;5002645;28;20064;-79
2023/02/18 01:59:12;;;;;;;;;;;;;;;10.21;100.00;101534.38;5000800;28;20046;-80
2023/02/18 02:01:42;;;;;;;9.88;7.97;;;;;;;10.22;100.00;101533.41;4998718;28;20404;-79
2023/02/18 02:04:08;;;;;;;10.57;8.23;;;;;;;10.23;100.00;101532.44;5006370;28;20134;-80
2023/02/18 02:06:35;;;;;;;13.43;8.88;;;;;;;10.17;100.00;101522.47;4999113;28;20097;-78
2023/02/18 02:09:05;;;;;;;11.70;9.00;;;;;;;10.20;100.00;101517.03;5007359;28;20110;-79
2023/02/18 02:11:58;;;;;;;10.50;8.35;;;;;;;10.20;100.00;101511.78;5006778;28;20085;-79
2023/02/18 02:14:32;;;;;;;;;;;;;;;10.21;100.00;101518.66;4995573;28;20080;-78
2023/02/18 02:17:04;;;;;;;11.07;9.00;;;;;;;10.27;100.00;101514.72;5004501;28;19991;-77
2023/02/18 02:19:56;;;;;;;12.02;8.98;;;;;;;10.29;100.00;101508.38;5005582;28;20152;-78
2023/02/18 02:22:56;;;;;;;12.55;9.35;;;;;;;10.29;100.00;101508.38;5000380;28;20109;-77
2023/02/18 02:25:40;;;;;;;13.23;9.80;;;;;;;10.33;100.00;101505.50;4991915;28;20476;-79
2023/02/18 02:28:30;;;;;;;11.75;8.98;;;;;;;10.34;100.00;101507.16;5000582;28;20129;-78
2023/02/18 02:31:12;;;;;;;13.43;9.68;;;;;;;10.31;100.00;101503.03;5001091;28;20514;-79
2023/02/18 02:34:15;;;;;;;11.45;9.02;;;;;;;10.34;100.00;101496.69;5005711;28;20092;-79
2023/02/18 02:36:52;;;;;;;12.38;9.75;;;;;;;10.36;100.00;101502.63;5003819;28;20062;-79
2023/02/18 02:39:27;;;;;;;13.52;10.07;;;;;;;10.37;100.00;101496.44;5001574;28;20138;-79
2023/02/18 02:42:03;;;;;;;13.65;10.50;;;;;;;10.36;100.00;101484.31;5000844;28;20501;-79
2023/02/18 02:44:38;;;;;;;15.80;11.50;;;;;;;10.39;100.00;101482.25;4998079;28;20060;-79
2023/02/18 02:47:10;;;;;;;15.82;12.52;;;;;;;10.42;100.00;101479.34;4996912;28;20141;-76
2023/02/18 02:49:44;;;;;;;16.25;11.52;;;;;;;10.44;100.00;101476.59;4998353;28;20046;-78
2023/02/18 02:52:19;;;;;;;16.63;12.65;;;;;;;10.46;100.00;101470.25;4998284;28;20077;-79
2023/02/18 02:54:46;;;;;;;16.63;12.48;;;;;;;10.52;100.00;101459.25;5002598;28;20121;-78
2023/02/18 02:57:48;;;;;;;16.13;13.02;;;;;;;10.51;100.00;101457.59;5009399;28;20081;-79
2023/02/18 03:00:18;;;;;;;19.92;12.95;;;;;;;10.52;100.00;101454.03;5000176;28;20204;-78
2023/02/18 03:03:11;;;;;;;18.25;13.43;;;;;;;10.51;100.00;101441.06;5001292;28;20250;-79
2023/02/18 03:05:52;;;;;;;19.35;14.00;;;;;;;10.52;100.00;101435.72;5000628;28;20145;-80
2023/02/18 03:08:31;;;;;;;19.10;13.52;;;;;;;10.55;100.00;101445.06;4992142;28;20133;-79
2023/02/18 03:11:03;;;;;;;15.55;12.25;;;;;;;10.55;100.00;101447.69;4999285;28;20053;-78
2023/02/18 03:13:45;;;;;;;17.13;13.00;;;;;;;10.54;100.00;101438.19;4999713;28;20133;-78
2023/02/18 03:16:22;;;;;;;14.25;10.93;;;;;;;10.58;100.00;101436.97;5003257;28;20073;-78
2023/02/18 03:18:55;;;;;;;13.55;10.80;;;;;;;10.60;100.00;101437.66;5004029;28;20070;-78
2023/02/18 03:21:26;;;;;;;12.15;10.15;;;;;;;10.57;100.00;101430.06;5007706;28;20081;-78
2023/02/18 03:23:59;;;;;;;13.77;10.18;;;;;;;10.59;100.00;101433.38;5000364;28;20044;-79
2023/02/18 03:26:26;;;;;;;;;;;;;;;10.56;100.00;101418.78;5003389;28;20157;-77
2023/02/18 03:28:58;;;;;;;13.57;8.88;;;;;;;10.50;100.00;101429.78;5000818;28;20303;-77
2023/02/18 03:31:27;;;;;;;10.93;8.00;;;;;;;10.52;100.00;101427.03;5005948;28;20113;-79
2023/02/18 03:33:57;;;;;;;12.00;7.25;;;;;;;10.49;100.00;101432.53;5004796;28;20286;-79
2023/02/18 03:36:25;;;;;;;10.07;7.10;;;;;;;10.42;100.00;101420.94;5011533;28;20077;-79
2023/02/18 03:38:57;;;;;;;8.93;6.65;;;;;;;10.36;100.00;101427.59;5009110;28;20129;-79
2023/02/18 03:41:23;;;;;;;9.50;5.80;;;;;;;10.35;100.00;101436.38;5003400;28;20504;-78
2023/02/18 03:43:50;;;;;;;8.35;5.90;;;;;;;10.29;100.00;101437.75;4995253;28;20129;-78
2023/02/18 03:46:17;;;;;;;7.50;5.47;;;;;;;10.26;100.00;101432.78;5004165;28;20050;-78
2023/02/18 03:48:44;;;;;;;7.25;5.45;;;;;;;10.25;100.00;101440.75;5006527;28;20117;-78
2023/02/18 03:51:11;;;;;;;7.75;4.82;;;;;;;10.25;100.00;101436.38;5008706;28;20089;-78
2023/02/18 03:53:38;;;;;;;6.05;4.78;;;;;;;10.29;100.00;101432.53;5002299;28;20050;-78
2023/02/18 03:56:07;;;;;;;6.68;5.25;;;;;;;10.24;100.00;101426.88;4999702;28;20454;-77
2023/02/18 03:58:33;;;;;;;5.88;4.45;;;;;;;10.27;100.00;101418.75;4994652;28;20050;-77
2023/02/18 04:01:00;;;;;;;5.32;4.28;;;;;;;10.25;100.00;101422.47;4998061;28;20485;-77
2023/02/18 04:03:26;;;;;;;7.32;4.40;;;;;;;10.26;100.00;101431.97;5009285;28;20077;-78
2023/02/18 04:05:53;;;;;;;7.22;4.28;;;;;;;10.23;100.00;101416.53;5012092;28;20124;-77
2023/02/18 04:08:20;;;;;;;5.80;4.60;;;;;;;10.26;100.00;101411.88;5002837;28;20051;-77
2023/02/18 04:10:46;;;;;;;6.40;4.57;;;;;;;10.29;100.00;101411.59;5003457;28;20133;-77
2023/02/18 04:13:14;;;;;;;6.50;5.40;;;;;;;10.29;100.00;101408.97;4994256;28;20081;-78
2023/02/18 04:15:41;;;;;;;8.52;6.50;;;;;;;10.27;100.00;101403.06;5009698;28;20114;-79
2023/02/18 04:18:07;;;;;;;7.75;5.95;;;;;;;10.29;100.00;101398.50;5010172;28;20137;-77
2023/02/18 04:20:34;;;;;;;6.90;6.15;;;;;;;10.25;100.00;101396.31;5002697;28;20114;-78
2023/02/18 04:23:01;;;;;;;8.10;6.93;;;;;;;10.18;100.00;101389.91;5011330;28;20087;-77
2023/02/18 04:25:27;;;;;;;9.40;6.60;;;;;;;10.16;100.00;101381.38;5012242;28;20304;-78
2023/02/18 04:27:54;;;;;;;8.25;7.22;;;;;;;10.15;100.00;101380.56;5003253;28;20132;-78
2023/02/18 04:30:22;;;;;;;7.80;6.65;;;;;;;10.15;100.00;101380.56;5001928;28;20065;-78
2023/02/18 04:32:48;;;;;;;9.82;6.93;;;;;;;10.19;100.00;101384.59;5002923;28;20141;-78
2023/02/18 04:35:15;;;;;;;9.90;5.72;;;;;;;10.16;100.00;101384.81;5010795;28;20110;-80
2023/02/18 04:37:42;;;;;;;8.30;6.70;;;;;;;10.18;100.00;101387.31;5011369;28;20464;-78
2023/02/18 04:40:09;;;;;;;8.23;6.35;;;;;;;10.16;100.00;101382.22;5004528;28;20539;-77
2023/02/18 04:42:36;;;;;;;8.93;6.40;;;;;;;10.12;100.00;101383.44;4994405;28;20081;-78
2023/02/18 04:45:03;;;;;;;10.25;6.50;;;;;;;10.10;100.00;101379.31;5010987;28;20081;-77
2023/02/18 04:47:31;;;;;;;6.97;5.88;;;;;;;10.10;100.00;101379.31;5002057;28;20074;-78
2023/02/18 04:49:58;;;;;;;7.43;5.88;;;;;;;10.03;100.00;101376.38;5003056;28;20077;-77
2023/02/18 04:52:24;;;;;;;8.57;5.97;;;;;;;10.01;100.00;101369.66;5011118;28;20082;-78
2023/02/18 04:54:51;;;;;;;9.45;6.40;;;;;;;9.97;100.00;101384.78;5013475;28;20114;-77
2023/02/18 04:57:17;;;;;;;7.93;6.20;;;;;;;9.94;100.00;101379.81;5014595;28;20133;-79
2023/02/18 04:59:44;;;;;;;9.73;6.40;;;;;;;9.88;100.00;101375.13;5013992;28;20076;-76
2023/02/18 05:02:11;;;;;;;8.60;6.72;;;;;;;9.86;100.00;101383.13;5005607;28;20088;-78
2023/02/18 05:04:38;;;;;;;9.90;6.90;;;;;;;9.83;100.00;101377.31;5007332;28;20177;-77
2023/02/18 05:07:05;;;;;;;8.40;7.00;;;;;;;9.83;100.00;101374.72;5002955;28;20362;-78
2023/02/18 05:09:32;;;;;;;7.18;6.13;;;;;;;9.84;100.00;101361.50;5009681;28;20113;-77
2023/02/18 05:11:58;;;;;;;7.65;5.70;;;;;;;9.84;100.00;101368.53;5009965;28;20467;-78
2023/02/18 05:14:25;;;;;;;7.32;6.03;;;;;;;9.79;100.00;101358.47;5001832;28;20089;-78
2023/02/18 05:16:52;;;;;;;6.45;5.18;;;;;;;9.79;100.00;101368.09;5010980;28;20137;-79
2023/02/18 05:19:18;;;;;;;7.25;5.82;;;;;;;9.78;100.00;101361.22;5005619;28;20132;-77
2023/02/18 05:21:46;;;;;;;8.70;6.28;;;;;;;9.73;100.00;101364.22;5004785;28;20085;-77
2023/02/18 05:24:13;;;;;;;9.23;7.10;;;;;;;9.71;100.00;101358.28;5009887;28;20109;-77
2023/02/18 05:26:40;;;;;;;12.95;8.65;;;;;;;9.65;100.00;101362.25;5013630;28;20061;-78
2023/02/18 05:29:06;;;;;;;10.68;8.63;;;;;;;9.68;100.00;101362.97;5017497;28;20073;-78
2023/02/18 05:31:33;;;;;;;10.70;8.38;;;;;;;9.68;100.00;101363.78;5006045;28;20081;-77
2023/02/18 05:34:00;;;;;;;13.55;10.13;;;;;;;9.69;100.00;101354.97;5004751;28;20106;-78
2023/02/18 05:36:26;;;;;;;10.60;8.70;;;;;;;9.71;100.00;101360.09;5009154;28;20133;-75
2023/02/18 05:38:54;;;;;;;12.95;9.93;;;;;;;9.68;100.00;101352.50;5007271;28;20046;-78
2023/02/18 05:41:21;;;;;;;12.85;9.75;;;;;;;9.68;100.00;101349.88;5016625;28;20137;-78
2023/02/18 05:46:32;;;;;;;11.55;9.40;;;;;;;9.65;100.00;101343.97;5007708;28;20056;-78
2023/02/18 05:48:59;;;;;;;10.63;8.30;;;;;;;9.67;100.00;101335.16;5007291;28;20528;-78
2023/02/18 05:51:25;;;;;;;9.10;7.18;;;;;;;9.67;100.00;101324.72;5016351;28;20081;-77
2023/02/18 05:53:54;;;;;;;11.95;7.85;;;;;;;9.63;100.00;101332.81;5009806;28;20074;-77
2023/02/18 05:56:21;;;;;;;9.00;7.80;;;;;;;9.60;100.00;101327.84;5016945;28;20077;-78
2023/02/18 05:58:47;;;;;;;9.70;8.00;;;;;;;9.60;100.00;101321.81;5020297;28;20073;-78
2023/02/18 06:01:14;;;;;;;11.05;7.72;;;;;;;9.61;100.00;101320.84;5006156;28;20081;-78
2023/02/18 06:03:40;;;;;;;12.88;8.13;;;;;;;9.62;100.00;101304.22;5008733;28;20061;-78
2023/02/18 06:06:08;;;;;;;11.25;7.78;;;;;;;9.63;100.00;101304.06;5007202;28;20050;-77
2023/02/18 06:08:34;;;;;;;10.30;8.10;;;;;;;9.62;100.00;101297.19;5012021;28;20132;-78
2023/02/18 06:11:02;;;;;;;10.02;7.82;;;;;;;9.60;100.00;101298.28;5001875;28;20054;-79
2023/02/18 06:13:29;;;;;;;9.85;6.70;;;;;;;9.63;100.00;101280.56;5008941;28;20125;-77
2023/02/18 06:15:55;;;;;;;7.80;5.88;;;;;;;9.62;100.00;101281.53;4996912;28;20148;-77
2023/02/18 06:18:23;;;;;;;8.48;5.60;;;;;;;9.61;100.00;101290.31;5005482;28;20137;-77
2023/02/18 06:20:49;;;;;;;6.00;4.85;;;;;;;9.62;100.00;101291.97;5005256;28;20054;-77
2023/02/18 06:23:16;;;;;;;6.78;4.88;;;;;;;9.69;100.00;101286.22;4999060;28;20434;-78
2023/02/18 06:25:43;;;;;;;7.10;3.97;;;;;;;9.69;100.00;101287.03;5000820;28;20046;-77
2023/02/18 06:28:11;;;;;;;5.40;3.92;;;;;;;9.72;100.00;101278.94;4998035;28;20050;-77
2023/02/18 06:30:38;;;;;;;6.55;4.07;;;;;;;9.72;100.00;101276.31;5009083;28;20113;-78
2023/02/18 06:33:04;;;;;;;4.80;3.80;;;;;;;9.78;100.00;101280.19;5008261;28;20088;-78
2023/02/18 06:35:31;;;;;;;4.82;3.67;;;;;;;9.79;100.00;101271.38;4996958;28;20130;-78
2023/02/18 06:37:58;;;;;;;4.40;3.25;;;;;;;9.87;100.00;101284.59;5008443;28;20352;-78
2023/02/18 06:40:24;;;;;;;4.13;3.35;;;;;;;9.91;100.00;101286.81;5011586;28;20121;-77
2023/02/18 06:42:51;;;;;;;4.95;3.00;;;;;;;9.96;100.00;101275.91;5002471;28;20082;-77
2023/02/18 06:45:19;;;;;;;4.85;3.15;;;;;;;10.01;100.00;101272.91;4999385;28;20050;-77
2023/02/18 06:47:46;;;;;;;7.75;2.80;;;;;;;10.07;100.00;101275.81;5004528;28;20061;-76
2023/02/18 06:50:12;;;;;;;5.03;2.92;;;;;;;10.07;100.00;101267.97;4996193;28;20061;-76
2023/02/18 06:52:39;;;;;;;5.68;3.83;;;;;;;10.10;100.00;101272.91;5006671;28;20148;-78
2023/02/18 06:55:06;;;;;;;3.53;2.80;;;;;;;10.12;100.00;101260.53;5003346;28;20141;-78
2023/02/18 06:57:33;;;;;;;5.00;3.10;;;;;;;10.13;100.00;101284.88;5010909;28;20053;-78
2023/02/18 07:00:00;;;;;;;3.58;2.88;;;;;;;10.16;100.00;101280.22;5002080;28;20145;-80
2023/02/18 07:02:28;;;;;;;4.35;2.83;;;;;;;10.15;100.00;101272.50;5011358;28;20085;-79
2023/02/18 07:04:55;;;;;;;3.38;2.80;;;;;;;10.16;100.00;101261.91;5011155;28;20149;-79
2023/02/18 07:07:21;;;;;;;3.00;2.53;;;;;;;10.21;100.00;101280.66;5002948;28;20129;-78
2023/02/18 07:09:48;;;;;;;4.32;2.15;;;;;;;10.19;100.00;101285.19;5003295;28;20057;-78
2023/02/18 07:12:15;;;;;;;3.88;2.40;;;;;;;10.19;100.00;101274.75;5004376;28;20130;-80
2023/02/18 07:14:41;;;;;;;1.95;1.75;;;;;;;10.18;100.00;101288.75;5011319;28;20128;-78
2023/02/18 07:17:08;;;;;;;2.65;2.30;;;;;;;10.19;100.00;101293.06;5010798;28;20158;-77
2023/02/18 07:19:36;;;;;;;2.17;1.98;;;;;;;10.21;100.00;101285.91;5002295;28;20084;-78
2023/02/18 07:22:02;;;;;;;2.97;1.98;;;;;;;10.20;100.00;101299.94;5003892;28;20050;-78
2023/02/18 07:24:29;;;;;;;3.30;2.35;;;;;;;10.24;100.00;101311.78;5008372;28;20073;-78
2023/02/18 07:26:55;;;;;;;2.15;1.95;;;;;;;10.24;100.00;101303.94;5002294;28;20428;-78
2023/02/18 07:29:22;;;;;;;1.80;1.70;;;;;;;10.26;100.00;101319.47;5005454;28;20195;-77
2023/02/18 07:31:49;;;;;;;5.90;1.92;;;;;;;10.28;100.00;101299.25;5003724;28;20137;-78
2023/02/18 07:34:15;;;;;;;3.40;2.25;;;;;;;10.34;100.00;101303.09;5012024;28;20102;-79
2023/02/18 07:36:43;;;;;;;2.50;1.88;;;;;;;10.30;100.00;101299.94;5012259;28;20127;-79
2023/02/18 07:39:10;;;;;;;2.67;2.45;;;;;;;10.27;100.00;101287.97;5006543;28;20631;-78
2023/02/18 07:41:37;;;;;;;3.22;2.30;;;;;;;10.27;100.00;101287.97;5014169;28;20113;-79
2023/02/18 07:44:04;;;;;;;2.83;2.30;;;;;;;10.21;100.00;101283.28;5004723;28;20548;-80
2023/02/18 07:46:31;;;;;;;4.82;2.55;;;;;;;10.34;100.00;101269.09;5009492;28;20583;-80
2023/02/18 07:48:58;;;;;;;2.65;2.17;;;;;;;10.37;100.00;101287.13;5013355;28;20053;-79
2023/02/18 07:51:25;;;;;;;2.75;2.15;;;;;;;10.36;100.00;101282.88;5005080;28;20053;-78
2023/02/18 07:53:53;;;;;;;2.45;2.20;;;;;;;10.38;100.00;101307.09;5004176;28;20042;-78
2023/02/18 07:56:19;;;;;;;2.20;2.00;;;;;;;10.41;100.00;101319.88;5002956;28;20635;-78
2023/02/18 07:58:46;;;;;;;3.75;2.80;;;;;;;10.33;100.00;101311.91;5007979;28;20110;-77
2023/02/18 08:01:14;;;;;;;3.92;2.72;;;;;;;10.25;100.00;101336.13;5003317;28;20133;-78
2023/02/18 08:03:41;;;;;;;4.20;3.00;;;;;;;10.13;100.00;101329.34;5000485;28;20054;-77
2023/02/18 08:06:09;;;;;;;3.83;3.13;;;;;;;10.11;100.00;101334.72;5004706;28;20054;-77
2023/02/18 08:08:35;;;;;;;5.97;3.63;;;;;;;10.08;98.64;101328.94;5012574;28;20051;-78
2023/02/18 08:11:05;;;;;;;5.85;3.30;;;;;;;10.11;97.38;101329.47;5004944;28;20389;-77
2023/02/18 08:13:32;;;;;;;5.68;3.20;;;;;;;10.06;97.03;101331.69;5005688;28;20057;-79
2023/02/18 08:15:59;;;;;;;6.63;3.60;;;;;;;10.02;96.69;101330.28;5000427;28;20054;-77
2023/02/18 08:18:27;;;;;;;8.75;3.53;;;;;;;9.95;96.58;101334.41;5006842;28;20109;-79
2023/02/18 08:20:54;;;;;;;4.72;3.42;;;;;;;9.97;95.96;101329.88;5007971;28;20058;-78
2023/02/18 08:23:24;;;;;;;6.30;4.00;;;;;;;9.94;96.20;101328.34;5013690;28;20050;-78
2023/02/18 08:25:52;;;;;;;8.25;4.00;;;;;;;9.95;95.98;101337.00;5004009;28;20098;-78
2023/02/18 08:28:21;;;;;;;7.95;4.03;;;;;;;9.88;96.20;101349.81;5010078;28;20137;-78
2023/02/18 08:30:50;;;;;;;7.63;4.25;;;;;;;9.86;96.64;101361.38;5011393;28;20056;-79
2023/02/18 08:33:18;;;;;;;8.82;4.70;;;;;;;9.77;96.61;101352.53;5006695;28;20042;-79
2023/02/18 08:35:46;;;;;;;7.47;4.00;;;;;;;9.69;97.69;101364.63;5011124;28;20042;-78
2023/02/18 08:38:13;;;;;;;10.10;4.30;;;;;;;9.65;98.39;101369.28;5017900;28;20057;-80
2023/02/18 08:40:40;;;;;;;10.50;4.35;;;;;;;9.51;99.17;101362.59;5008101;28;20078;-78
2023/02/18 08:43:07;;;;;;;13.05;4.80;;;;;;;9.41;100.00;101366.16;5015838;28;20050;-81
2023/02/18 08:45:37;;;;;;;12.25;4.45;;;;;;;9.45;99.73;101378.81;5007030;28;20062;-78
2023/02/18 08:48:04;;;;;;;11.77;6.05;;;;;;;9.45;100.00;101363.13;5009837;28;20084;-79
2023/02/18 08:50:31;;;;;;;9.40;4.22;;;;;;;9.42;100.00;101350.34;5020407;28;20077;-80
2023/02/18 08:52:59;;;;;;;9.02;4.40;;;;;;;9.54;100.00;101357.13;5010179;28;20432;-80
2023/02/18 08:55:26;;;;;;;8.45;4.18;;;;;;;9.62;99.54;101362.53;5008079;28;20046;-79
2023/02/18 08:57:53;;;;;;;12.02;5.13;;;;;;;9.67;98.78;101361.31;5014160;28;20062;-78
2023/02/18 09:00:20;;;;;;;9.68;4.35;;;;;;;9.68;98.59;101357.72;5012474;28;20057;-79
2023/02/18 09:02:48;;;;;;;16.25;4.90;;;;;;;9.72;98.02;101361.72;5014644;28;20081;-76
2023/02/18 09:05:15;;;;;;;10.15;4.63;;;;;;;9.78;98.39;101358.59;4991502;28;20050;-78
2023/02/18 09:07:42;;;;;;;12.40;4.72;;;;;;;9.80;97.43;101351.44;5013010;28;20074;-78
2023/02/18 09:10:10;;;;;;;9.93;4.93;;;;;;;9.79;97.62;101347.19;5019016;28;20058;-79
2023/02/18 09:12:37;;;;;;;11.80;4.65;;;;;;;9.85;97.27;101346.66;5015678;28;20054;-79
2023/02/18 09:15:05;;;;;;;11.38;4.22;;;;;;;9.89;97.15;101350.66;5009026;28;20087;-78
2023/02/18 09:17:32;;;;;;;11.85;5.18;;;;;;;9.89;97.01;101334.97;5010290;28;20077;-79
2023/02/18 09:20:00;;;;;;;11.07;4.70;;;;;;;9.90;96.81;101331.41;5008232;28;20058;-80
2023/02/18 09:22:32;;;;;;;12.05;4.47;;;;;;;9.93;96.36;101334.53;5010123;28;20085;-78
2023/02/18 09:24:59;;;;;;;11.13;4.70;;;;;;;9.96;96.06;101333.44;5014951;28;20511;-77
2023/02/18 09:27:26;;;;;;;10.35;5.93;;;;;;;10.05;95.81;101337.88;5004259;28;20061;-79
2023/02/18 09:29:54;;;;;;;10.95;4.70;;;;;;;10.15;95.44;101336.09;5006446;28;20137;-79
2023/02/18 09:32:20;;;;;;;9.68;4.53;;;;;;;10.21;95.09;101342.59;5012630;28;20097;-78
2023/02/18 09:34:47;;;;;;;10.07;4.78;;;;;;;10.27;94.97;101335.03;5012705;28;20860;-79
2023/02/18 09:37:18;;;;;;;18.40;5.78;;;;;;;10.26;94.80;101330.78;4994705;28;20066;-78
2023/02/18 09:39:45;;;;;;;9.38;4.30;;;;;;;10.32;94.92;101336.44;5003556;28;20172;-76
2023/02/18 09:42:15;;;;;;;8.60;4.50;;;;;;;10.44;94.53;101324.84;5003082;28;20085;-77
2023/02/18 09:44:45;;;;;;;8.52;4.32;;;;;;;10.50;94.19;101319.06;4990493;28;20061;-76
2023/02/18 09:47:16;;;;;;;11.88;5.28;;;;;;;10.37;94.08;101321.16;4996270;28;20054;-76
2023/02/18 09:49:47;;;;;;;11.23;4.45;;;;;;;10.24;94.25;101303.94;4994802;28;20078;-77
2023/02/18 09:52:22;;;;;;;12.07;4.57;;;;;;;10.24;94.42;101303.94;4997087;28;20138;-78
2023/02/18 09:54:49;;;;;;;10.70;4.78;;;;;;;10.21;94.11;101288.50;4997441;28;20126;-77
2023/02/18 09:57:25;;;;;;;11.52;5.13;;;;;;;10.16;94.01;101298.53;4995295;28;20046;-75
2023/02/18 09:59:59;;;;;;;11.93;4.40;;;;;;;10.14;94.22;101299.63;4999028;28;20070;-78
2023/02/18 10:02:26;;;;;;;14.88;4.90;;;;;;;10.16;94.16;101301.13;4996286;28;20090;-78
2023/02/18 10:04:55;;;;;;;10.93;4.38;;;;;;;10.21;94.14;101304.19;4996122;28;20069;-76
2023/02/18 10:07:29;;;;;;;12.63;4.80;;;;;;;10.19;93.57;101293.06;4993644;28;20058;-78
2023/02/18 10:09:59;;;;;;;13.05;4.93;;;;;;;10.26;93.06;101280.25;4997145;28;20132;-75
2023/02/18 10:12:27;;;;;;;12.90;5.15;;;;;;;10.27;93.02;101289.75;4994893;28;20050;-78
2023/02/18 10:15:02;;;;;;;9.57;4.72;;;;;;;10.32;92.73;101284.09;4994658;28;20082;-76
2023/02/18 10:17:32;;;;;;;12.50;4.95;;;;;;;10.35;92.60;101289.06;4991443;28;20129;-76
2023/02/18 10:20:00;;;;;;;16.02;5.05;;;;;;;10.46;92.72;101278.44;4994931;28;20050;-76
2023/02/18 10:22:28;;;;;;;11.77;4.57;;;;;;;10.50;92.69;101290.28;4995096;28;20050;-76
2023/02/18 10:24:58;;;;;;;11.60;4.45;;;;;;;10.39;93.42;101293.06;4990323;28;20518;-76
2023/02/18 10:27:27;;;;;;;11.85;4.70;;;;;;;10.32;93.83;101278.88;4988087;28;20172;-75
2023/02/18 10:29:55;;;;;;;8.57;4.80;;;;;;;10.29;94.26;101282.59;4997285;28;20091;-79
2023/02/18 10:32:24;;;;;;;12.85;4.60;;;;;;;10.35;94.26;101294.28;4995200;28;20481;-78
2023/02/18 10:34:54;;;;;;;12.98;5.13;;;;;;;10.33;94.16;101302.28;4991335;28;20133;-80
2023/02/18 10:37:48;;;;;;;12.73;4.80;;;;;;;10.33;94.05;101302.28;5001849;28;20519;-79
2023/02/18 10:40:20;;;;;;;10.25;4.70;;;;;;;10.32;94.52;101292.78;4991774;28;20039;-79
2023/02/18 10:43:02;;;;;;;11.80;4.93;;;;;;;10.28;94.69;101292.22;4996323;28;20074;-79
2023/02/18 10:45:38;;;;;;;7.70;4.65;;;;;;;10.30;94.44;101292.91;5001689;28;20089;-79
2023/02/18 10:48:25;;;;;;;16.45;4.30;;;;;;;10.33;94.13;101297.03;5008067;28;20054;-79
2023/02/18 10:50:53;;;;;;;9.65;4.40;;;;;;;10.36;93.96;101296.78;5006186;28;20089;-79
2023/02/18 10:53:30;;;;;;;16.55;4.55;;;;;;;10.38;93.90;101289.63;4997839;28;20146;-77
2023/02/18 10:55:57;;;;;;;8.13;4.20;;;;;;;10.31;94.87;101298.97;4991377;28;20042;-76
2023/02/18 10:58:27;;;;;;;10.48;4.20;;;;;;;10.17;96.52;101300.16;4984248;28;20050;-77
2023/02/18 11:00:54;;;;;;;9.13;4.78;;;;;;;10.01;98.01;101293.81;4987726;28;20074;-77
2023/02/18 11:03:23;;;;;;;7.95;4.13;;;;;;;9.88;99.63;101307.16;4990936;28;20081;-78
2023/02/18 11:05:52;;;;;;;8.00;4.38;;;;;;;9.86;100.00;101315.16;4992268;28;20081;-78
2023/02/18 11:08:24;;;;;;;8.00;4.20;;;;;;;9.92;100.00;101319.00;4999708;28;20078;-78
2023/02/18 11:10:51;;;;;;;6.97;4.35;;;;;;;9.91;100.00;101323.41;5004328;28;20146;-78
2023/02/18 11:13:26;;;;;;;9.32;4.50;;;;;;;9.86;100.00;101324.78;5002541;28;20084;-78
2023/02/18 11:16:02;;;;;;;8.15;4.05;;;;;;;9.89;100.00;101316.66;4994827;28;20394;-78
2023/02/18 11:18:39;;;;;;;8.48;4.18;;;;;;;10.01;100.00;101323.41;5006902;28;20077;-79
2023/02/18 11:21:20;;;;;;;9.43;3.85;;;;;;;10.15;100.00;101319.56;5000960;28;20567;-77
2023/02/18 11:23:52;;;;;;;11.85;4.47;;;;;;;10.08;100.00;101319.28;4992432;28;20493;-77
2023/02/18 11:26:26;;;;;;;8.48;4.10;;;;;;;10.01;100.00;101314.72;4998821;28;20134;-78
2023/02/18 11:29:00;;;;;;;5.82;3.83;;;;;;;9.90;100.00;101321.75;5002296;28;20042;-78